Time;durP1;ratioP1;P1;durP2;ratioP2;P2;SDS_P1;SDS_P2;PMS_P1;PMS_P2;Temp;Humidity;BMP_temperature;BMP_pressure;BME280_temperature;BME280_humidity;BME280_pressure;Samples;Min_cycle;Max_cycle;Signal;HPM_P1;HPM_P2
2022/09/21 00:01:48;;;;;;;0.17;0.17;;;;;;;8.19;90.61;99691.56;5068634;28;20044;-72
2022/09/21 00:04:14;;;;;;;1.33;0.20;;;;;;;8.18;90.69;99698.91;5055528;28;20404;-69
2022/09/21 00:06:43;;;;;;;0.22;0.20;;;;;;;8.15;90.74;99691.25;5047245;28;20411;-70
2022/09/21 00:09:09;;;;;;;0.32;0.10;;;;;;;8.16;90.95;99694.81;5031737;28;20045;-70
2022/09/21 00:11:37;;;;;;;0.22;0.17;;;;;;;8.15;90.77;99690.47;5038519;28;20243;-72
2022/09/21 00:14:06;;;;;;;0.30;0.20;;;;;;;8.12;90.76;99696.41;5033909;28;20136;-70
2022/09/21 00:16:33;;;;;;;0.43;0.30;;;;;;;8.12;91.03;99690.97;5043651;28;20084;-72
2022/09/21 00:18:59;;;;;;;0.10;0.10;;;;;;;8.11;91.00;99690.16;5046333;28;20052;-71
2022/09/21 00:21:27;;;;;;;0.10;0.10;;;;;;;8.11;91.03;99690.16;5046183;28;20080;-70
2022/09/21 00:23:53;;;;;;;0.10;0.10;;;;;;;8.08;91.01;99687.97;5044340;28;20571;-71
2022/09/21 00:26:22;;;;;;;0.10;0.10;;;;;;;8.07;91.10;99689.84;5044875;28;20049;-71
2022/09/21 00:28:53;;;;;;;0.10;0.10;;;;;;;8.06;91.19;99692.84;5051204;28;20056;-71
2022/09/21 00:31:20;;;;;;;0.10;0.10;;;;;;;8.08;91.36;99696.13;5030128;28;20145;-71
2022/09/21 00:33:46;;;;;;;0.20;0.17;;;;;;;8.08;91.59;99696.13;5047115;28;20143;-70
2022/09/21 00:36:15;;;;;;;0.63;0.10;;;;;;;8.07;91.83;99699.94;5048355;28;20132;-70
2022/09/21 00:38:42;;;;;;;0.30;0.20;;;;;;;8.05;91.99;99697.47;5044820;28;20037;-70
2022/09/21 00:41:10;;;;;;;0.10;0.10;;;;;;;8.05;92.06;99699.38;5046551;28;20044;-72
2022/09/21 00:43:39;;;;;;;0.52;0.20;;;;;;;8.06;92.18;99695.56;5026693;28;20060;-71
2022/09/21 00:46:14;;;;;;;0.10;0.10;;;;;;;8.07;92.23;99699.94;5046322;28;20076;-72
2022/09/21 00:48:41;;;;;;;0.10;0.10;;;;;;;8.11;91.85;99692.88;5046612;28;20114;-72
2022/09/21 00:51:08;;;;;;;;;;;;;;;8.12;91.54;99696.41;5029208;28;20075;-72
2022/09/21 00:53:35;;;;;;;0.10;0.10;;;;;;;8.09;91.26;99698.56;5028852;28;19925;-72
2022/09/21 00:56:02;;;;;;;0.10;0.10;;;;;;;8.07;91.04;99697.22;5042938;28;20049;-72
2022/09/21 00:58:32;;;;;;;0.15;0.15;;;;;;;8.02;91.15;99697.16;5056410;28;20041;-70
2022/09/21 01:00:59;;;;;;;0.45;0.13;;;;;;;8.02;91.39;99691.72;5063361;28;20049;-69
2022/09/21 01:03:30;;;;;;;0.20;0.20;;;;;;;8.01;91.47;99692.78;5067769;28;20045;-69
2022/09/21 01:05:56;;;;;;;0.22;0.20;;;;;;;7.98;91.60;99688.72;5068083;28;20132;-69
2022/09/21 01:08:25;;;;;;;0.43;0.20;;;;;;;7.97;91.72;99689.78;5065390;28;20040;-69
2022/09/21 01:11:07;;;;;;;0.13;0.13;;;;;;;8.00;91.83;99700.16;5065462;28;20045;-69
2022/09/21 01:13:47;;;;;;;0.30;0.10;;;;;;;8.02;92.25;99687.09;5066208;28;20084;-69
2022/09/21 01:16:17;;;;;;;0.13;0.13;;;;;;;8.03;92.62;99691.47;5062023;28;20146;-69
2022/09/21 01:18:50;;;;;;;0.10;0.10;;;;;;;8.06;92.74;99690.94;5061065;28;20049;-69
2022/09/21 01:21:19;;;;;;;0.10;0.10;;;;;;;8.06;92.80;99692.84;5064637;28;20139;-68
2022/09/21 01:24:08;;;;;;;0.20;0.20;;;;;;;8.05;92.94;99689.28;5066255;28;20055;-70
2022/09/21 01:27:04;;;;;;;0.20;0.20;;;;;;;8.05;93.03;99686.56;5066649;28;20483;-70
2022/09/21 01:29:37;;;;;;;0.10;0.10;;;;;;;7.98;93.09;99685.97;5065077;28;20097;-70
2022/09/21 01:32:08;;;;;;;0.10;0.10;;;;;;;7.97;92.97;99692.50;5065215;28;20064;-69
2022/09/21 01:34:38;;;;;;;0.20;0.20;;;;;;;7.93;93.17;99697.66;5064472;28;20048;-70
2022/09/21 01:37:11;;;;;;;0.40;0.20;;;;;;;7.91;93.38;99690.81;5065192;28;20049;-71
2022/09/21 01:39:42;;;;;;;0.15;0.15;;;;;;;7.91;93.33;99701.69;5067497;28;20462;-72
2022/09/21 01:42:09;;;;;;;0.40;0.20;;;;;;;7.92;93.08;99693.28;5065531;28;20067;-71
2022/09/21 01:44:39;;;;;;;0.10;0.10;;;;;;;7.95;93.00;99686.47;5064738;28;20055;-72
2022/09/21 01:47:09;;;;;;;0.10;0.10;;;;;;;7.95;92.89;99697.38;5069632;28;20053;-70
2022/09/21 01:49:39;;;;;;;0.52;0.25;;;;;;;7.92;93.21;99693.28;5068194;28;20083;-70
2022/09/21 01:52:14;;;;;;;0.17;0.17;;;;;;;7.92;93.23;99690.56;5066859;28;20159;-70
2022/09/21 01:54:46;;;;;;;0.10;0.10;;;;;;;7.92;93.30;99692.44;5069864;28;20044;-69
2022/09/21 01:57:16;;;;;;;0.17;0.17;;;;;;;7.94;93.21;99693.84;5069466;28;20516;-69
2022/09/21 01:59:48;;;;;;;1.17;0.20;;;;;;;7.97;93.36;99699.84;5069930;28;20048;-71
2022/09/21 02:02:18;;;;;;;0.30;0.20;;;;;;;7.96;93.03;99701.75;5059297;28;20056;-71
2022/09/21 02:04:45;;;;;;;0.28;0.13;;;;;;;7.95;92.72;99700.94;5046283;28;20574;-71
2022/09/21 02:07:11;;;;;;;0.10;0.10;;;;;;;7.95;92.73;99703.66;5047313;28;20139;-72
2022/09/21 02:09:38;;;;;;;0.10;0.10;;;;;;;7.92;92.91;99696.00;5048584;28;20045;-72
2022/09/21 02:12:04;;;;;;;0.40;0.20;;;;;;;7.95;93.11;99705.53;5031512;28;20102;-71
2022/09/21 02:14:33;;;;;;;0.30;0.20;;;;;;;7.99;93.02;99698.50;5044928;28;20041;-71
2022/09/21 02:17:10;;;;;;;0.15;0.15;;;;;;;8.00;92.93;99705.59;5047901;28;20055;-72
2022/09/21 02:19:44;;;;;;;0.20;0.20;;;;;;;8.02;92.82;99702.59;5029975;28;20052;-72
2022/09/21 02:22:14;;;;;;;0.10;0.10;;;;;;;8.06;92.66;99707.28;5047131;28;20140;-72
2022/09/21 02:24:42;;;;;;;0.10;0.10;;;;;;;8.09;92.37;99709.47;5050258;28;20051;-71
2022/09/21 02:27:19;;;;;;;0.17;0.17;;;;;;;8.11;91.82;99713.81;5048365;28;20048;-70
2022/09/21 02:29:50;;;;;;;0.38;0.10;;;;;;;8.08;92.04;99707.81;5031616;28;20072;-72
2022/09/21 02:32:25;;;;;;;0.10;0.10;;;;;;;8.09;91.67;99708.66;5050276;28;20052;-71
2022/09/21 02:34:57;;;;;;;0.17;0.17;;;;;;;8.10;91.91;99704.84;5048951;28;20041;-70
2022/09/21 02:37:32;;;;;;;0.10;0.10;;;;;;;8.08;91.26;99712.47;5065378;28;20059;-71
2022/09/21 02:40:03;;;;;;;0.10;0.10;;;;;;;8.08;91.18;99716.00;5049582;28;20059;-70
2022/09/21 02:42:36;;;;;;;0.10;0.10;;;;;;;8.12;91.33;99715.47;5067995;28;20121;-71
2022/09/21 02:45:10;;;;;;;0.05;0.05;;;;;;;8.16;91.21;99714.69;5040977;28;20111;-67
2022/09/21 02:47:50;;;;;;;0.10;0.10;;;;;;;8.20;91.13;99712.28;5023974;28;20057;-72
2022/09/21 02:50:25;;;;;;;0.10;0.10;;;;;;;8.29;91.26;99708.00;5037075;28;20088;-72
2022/09/21 02:52:54;;;;;;;0.20;0.20;;;;;;;8.35;91.34;99711.56;5007997;28;20492;-69
2022/09/21 02:55:21;;;;;;;0.10;0.10;;;;;;;8.44;91.05;99714.63;5035982;28;20041;-71
2022/09/21 02:57:48;;;;;;;;;;;;;;;8.51;91.07;99705.19;5018736;28;20544;-70
2022/09/21 03:00:15;;;;;;;0.10;0.10;;;;;;;8.57;90.78;99702.47;5025251;28;19925;-69
2022/09/21 03:02:44;;;;;;;0.30;0.10;;;;;;;8.63;90.21;99701.41;5023642;28;20068;-69
2022/09/21 03:05:12;;;;;;;0.10;0.10;;;;;;;8.68;89.70;99708.78;5029848;28;20042;-70
2022/09/21 03:07:40;;;;;;;0.55;0.20;;;;;;;8.73;89.17;99706.09;5047477;28;20045;-70
2022/09/21 03:10:08;;;;;;;0.15;0.15;;;;;;;8.76;89.02;99708.31;5043288;28;20044;-69
2022/09/21 03:12:34;;;;;;;0.10;0.10;;;;;;;8.79;88.73;99707.78;5043206;28;20063;-68
2022/09/21 03:15:00;;;;;;;0.20;0.20;;;;;;;8.80;88.53;99710.22;5044293;28;20431;-70
2022/09/21 03:17:27;;;;;;;0.15;0.15;;;;;;;8.83;88.42;99705.34;5045529;28;20057;-69
2022/09/21 03:19:54;;;;;;;0.30;0.20;;;;;;;8.80;88.05;99706.69;5022652;28;20504;-69
2022/09/21 03:22:20;;;;;;;;;;;;;;;8.76;87.87;99713.75;5030363;28;20065;-69
2022/09/21 03:24:46;;;;;;;0.20;0.20;;;;;;;8.73;87.49;99709.66;5004198;28;19925;-69
2022/09/21 03:27:13;;;;;;;0.20;0.10;;;;;;;8.71;87.62;99700.91;5030951;28;20520;-69
2022/09/21 03:29:39;;;;;;;0.45;0.10;;;;;;;8.71;87.44;99703.63;5044409;28;20135;-69
2022/09/21 03:32:06;;;;;;;0.20;0.20;;;;;;;8.73;87.17;99700.63;5042994;28;20059;-70
2022/09/21 03:34:33;;;;;;;0.25;0.20;;;;;;;8.75;86.97;99709.41;5042445;28;20055;-70
2022/09/21 03:37:00;;;;;;;0.33;0.20;;;;;;;8.75;87.02;99702.03;5044443;28;20045;-69
2022/09/21 03:39:30;;;;;;;0.20;0.20;;;;;;;8.78;87.02;99706.13;5045745;28;20397;-68
2022/09/21 03:41:57;;;;;;;0.20;0.20;;;;;;;8.85;86.92;99703.16;5046397;28;20080;-70
2022/09/21 03:44:24;;;;;;;1.13;0.30;;;;;;;8.87;86.59;99706.44;5043610;28;20458;-70
2022/09/21 03:46:50;;;;;;;0.43;0.20;;;;;;;8.91;86.25;99702.09;5028442;28;20075;-69
2022/09/21 03:49:17;;;;;;;0.30;0.30;;;;;;;8.94;86.18;99702.38;5046035;28;20049;-69
2022/09/21 03:51:43;;;;;;;0.30;0.30;;;;;;;8.95;86.20;99695.00;5042832;28;20094;-69
2022/09/21 03:54:11;;;;;;;0.30;0.30;;;;;;;8.98;86.30;99696.41;5033062;28;20048;-69
2022/09/21 03:56:37;;;;;;;0.50;0.25;;;;;;;8.98;86.22;99701.84;5033391;28;20095;-69
2022/09/21 03:59:03;;;;;;;0.20;0.20;;;;;;;8.98;86.44;99697.22;5036513;28;20040;-70
2022/09/21 04:01:30;;;;;;;0.85;0.28;;;;;;;9.04;86.12;99696.16;5029183;28;20107;-72
2022/09/21 04:03:56;;;;;;;0.75;0.30;;;;;;;9.07;85.87;99701.06;5024844;28;20052;-72
2022/09/21 04:06:22;;;;;;;0.60;0.20;;;;;;;9.05;85.79;99691.50;5021333;28;20472;-72
2022/09/21 04:08:49;;;;;;;0.63;0.28;;;;;;;9.14;85.66;99700.81;5021956;28;20050;-72
2022/09/21 04:11:19;;;;;;;0.10;0.10;;;;;;;9.24;85.48;99701.94;5023833;28;20515;-72
2022/09/21 04:13:48;;;;;;;1.02;0.30;;;;;;;9.30;85.20;99703.59;5043173;28;20075;-71
2022/09/21 04:16:16;;;;;;;0.20;0.20;;;;;;;9.38;85.11;99700.34;5047491;28;20171;-71
2022/09/21 04:18:42;;;;;;;0.25;0.25;;;;;;;9.44;84.66;99702.00;5012974;28;20045;-71
2022/09/21 04:21:08;;;;;;;0.17;0.17;;;;;;;9.47;84.32;99693.25;5045045;28;20135;-72
2022/09/21 04:23:35;;;;;;;0.25;0.20;;;;;;;9.55;84.11;99691.09;5043880;28;20048;-72
2022/09/21 04:26:01;;;;;;;0.35;0.28;;;;;;;9.59;83.68;99698.47;5050670;28;20052;-71
2022/09/21 04:28:28;;;;;;;0.20;0.20;;;;;;;9.60;83.50;99691.94;5025655;28;20420;-71
2022/09/21 04:30:54;;;;;;;;;;;;;;;9.63;83.55;99702.31;5035840;28;20037;-70
2022/09/21 04:33:22;;;;;;;0.25;0.25;;;;;;;9.71;83.23;99702.84;5030950;28;19955;-70
2022/09/21 04:35:53;;;;;;;0.20;0.20;;;;;;;9.68;83.36;99706.97;5034081;28;20041;-70
2022/09/21 04:38:20;;;;;;;0.32;0.32;;;;;;;9.74;83.09;99705.88;5020083;28;20642;-72
2022/09/21 04:40:54;;;;;;;0.32;0.32;;;;;;;9.82;82.83;99703.66;5025790;28;20144;-72
2022/09/21 04:43:20;;;;;;;1.38;0.32;;;;;;;9.87;82.99;99701.75;5043077;28;20044;-72
2022/09/21 04:45:48;;;;;;;0.65;0.30;;;;;;;9.96;82.61;99702.03;5046746;28;20420;-72
2022/09/21 04:48:14;;;;;;;0.20;0.20;;;;;;;10.01;82.52;99712.97;5047169;28;20465;-72
2022/09/21 04:50:40;;;;;;;0.47;0.22;;;;;;;10.03;82.34;99719.00;5043057;28;20562;-70
2022/09/21 04:53:08;;;;;;;0.95;0.40;;;;;;;10.10;81.84;99709.69;5049809;28;20583;-72
2022/09/21 04:55:34;;;;;;;0.20;0.20;;;;;;;10.16;81.22;99716.81;5062479;28;20486;-73
2022/09/21 04:58:01;;;;;;;0.20;0.20;;;;;;;10.27;81.09;99718.41;4711755;28;10000256;-73
2022/09/21 05:00:27;;;;;;;0.30;0.30;;;;;;;10.38;80.79;99710.22;5060058;28;20529;-70
2022/09/21 05:02:54;;;;;;;0.38;0.25;;;;;;;10.52;80.76;99714.06;5030192;28;20060;-69
2022/09/21 05:05:20;;;;;;;0.77;0.40;;;;;;;10.65;80.14;99723.59;5036530;28;20049;-70
2022/09/21 05:07:46;;;;;;;0.32;0.30;;;;;;;10.77;79.89;99717.81;5038239;28;20095;-69
2022/09/21 05:10:13;;;;;;;0.22;0.20;;;;;;;10.91;79.33;99710.63;5025580;28;20045;-69
2022/09/21 05:12:42;;;;;;;0.30;0.30;;;;;;;11.02;79.21;99716.91;5000992;28;20076;-67
2022/09/21 05:15:10;;;;;;;0.30;0.20;;;;;;;11.16;78.70;99716.28;5041243;28;20131;-71
2022/09/21 05:17:36;;;;;;;0.30;0.30;;;;;;;11.33;77.95;99725.00;5016617;28;20048;-70
2022/09/21 05:20:05;;;;;;;0.20;0.20;;;;;;;11.48;77.22;99721.34;5041791;28;20064;-71
2022/09/21 05:22:36;;;;;;;0.20;0.20;;;;;;;11.63;76.85;99725.09;5020806;28;20092;-69
2022/09/21 05:25:03;;;;;;;0.45;0.20;;;;;;;11.74;76.24;99723.09;4999250;28;20049;-70
2022/09/21 05:27:29;;;;;;;0.30;0.30;;;;;;;11.78;75.58;99721.41;5022983;28;20580;-70
2022/09/21 05:29:56;;;;;;;0.38;0.20;;;;;;;11.79;75.55;99720.34;5019687;28;20091;-70
2022/09/21 05:32:30;;;;;;;0.20;0.20;;;;;;;11.88;75.50;99720.53;5034929;28;20061;-73
2022/09/21 05:35:06;;;;;;;0.20;0.20;;;;;;;11.86;75.06;99718.06;5022449;28;20037;-72
2022/09/21 05:37:46;;;;;;;0.20;0.20;;;;;;;11.84;74.89;99709.31;5021438;28;20045;-70
2022/09/21 05:40:12;;;;;;;0.20;0.20;;;;;;;11.92;74.79;99716.91;5058275;28;20135;-70
2022/09/21 05:42:39;;;;;;;0.30;0.30;;;;;;;11.94;74.32;99710.34;5041669;28;20138;-71
2022/09/21 05:45:07;;;;;;;0.20;0.20;;;;;;;12.02;74.40;99704.28;5024827;28;20049;-70
2022/09/21 05:47:38;;;;;;;0.30;0.30;;;;;;;12.11;73.87;99705.31;5042348;28;20056;-70
2022/09/21 05:50:18;;;;;;;0.28;0.28;;;;;;;12.18;73.79;99704.97;5025509;28;20595;-70
2022/09/21 05:52:54;;;;;;;0.47;0.47;;;;;;;12.28;73.09;99704.88;5055831;28;20060;-70
2022/09/21 05:55:28;;;;;;;0.32;0.32;;;;;;;12.37;72.90;99702.31;5059480;28;20052;-70
2022/09/21 05:58:00;;;;;;;0.30;0.30;;;;;;;12.46;72.80;99710.72;5047863;28;20579;-71
2022/09/21 06:00:38;;;;;;;0.20;0.20;;;;;;;12.57;72.35;99701.31;5039550;28;20061;-70
2022/09/21 06:03:26;;;;;;;0.73;0.38;;;;;;;12.62;71.83;99700.44;5034713;28;20074;-72
2022/09/21 06:05:52;;;;;;;0.47;0.38;;;;;;;12.77;71.59;99702.19;5041657;28;20041;-72
2022/09/21 06:08:20;;;;;;;0.60;0.40;;;;;;;12.98;71.13;99710.19;5046136;28;20044;-72
2022/09/21 06:10:47;;;;;;;0.30;0.30;;;;;;;13.14;70.27;99705.31;5011230;28;20080;-72
2022/09/21 06:13:13;;;;;;;0.68;0.50;;;;;;;13.25;69.75;99697.75;5043088;28;20053;-72
2022/09/21 06:15:39;;;;;;;0.63;0.45;;;;;;;13.34;69.12;99694.03;5037847;28;20049;-72
2022/09/21 06:18:06;;;;;;;0.38;0.38;;;;;;;13.52;68.51;99702.63;5036054;28;20195;-72
2022/09/21 06:20:32;;;;;;;0.55;0.40;;;;;;;13.64;67.32;99695.84;5049358;28;20154;-73
2022/09/21 06:23:00;;;;;;;0.30;0.30;;;;;;;13.93;66.67;99711.34;5056957;28;20052;-72
2022/09/21 06:25:28;;;;;;;0.35;0.35;;;;;;;13.96;66.11;99702.50;5060140;28;20523;-72
2022/09/21 06:27:54;;;;;;;0.30;0.30;;;;;;;14.04;65.96;99713.63;5059933;28;20061;-72
2022/09/21 06:30:20;;;;;;;0.30;0.30;;;;;;;14.04;65.48;99699.09;5049678;28;20056;-72
2022/09/21 06:32:46;;;;;;;0.40;0.40;;;;;;;14.03;65.26;99713.94;5050238;28;20135;-72
2022/09/21 06:35:13;;;;;;;0.30;0.30;;;;;;;14.00;65.66;99720.03;5027808;28;20136;-72
2022/09/21 06:37:40;;;;;;;0.30;0.30;;;;;;;13.99;65.16;99710.97;5031140;28;20053;-72
2022/09/21 06:40:08;;;;;;;0.30;0.30;;;;;;;13.89;65.56;99717.44;5032694;28;20050;-72
2022/09/21 06:42:35;;;;;;;0.38;0.35;;;;;;;13.87;65.51;99710.63;5029384;28;20052;-72
2022/09/21 06:45:02;;;;;;;0.65;0.40;;;;;;;13.89;65.02;99719.38;5039514;28;20048;-70
2022/09/21 06:47:28;;;;;;;;;;;;;;;13.80;65.60;99718.44;5016007;28;20795;-70
2022/09/21 06:49:54;;;;;;;0.45;0.30;;;;;;;13.75;65.60;99713.81;5058258;28;19924;-70
2022/09/21 06:52:20;;;;;;;0.22;0.22;;;;;;;13.61;65.79;99717.31;5050787;28;20587;-70
2022/09/21 06:54:47;;;;;;;0.30;0.30;;;;;;;13.49;65.64;99719.69;5056868;28;20139;-69
2022/09/21 06:57:13;;;;;;;0.32;0.32;;;;;;;13.53;66.09;99719.91;5053219;28;20444;-70
2022/09/21 06:59:41;;;;;;;0.30;0.30;;;;;;;13.50;66.12;99723.25;5061196;28;20055;-69
2022/09/21 07:02:08;;;;;;;0.52;0.40;;;;;;;13.45;66.07;99724.97;5067702;28;20574;-70
2022/09/21 07:04:34;;;;;;;0.30;0.30;;;;;;;13.61;66.03;99733.00;5064075;28;20076;-69
2022/09/21 07:07:00;;;;;;;0.40;0.40;;;;;;;13.68;65.43;99733.44;5055891;28;20091;-69
2022/09/21 07:09:26;;;;;;;0.30;0.30;;;;;;;13.79;65.58;99733.28;5053748;28;20458;-70
2022/09/21 07:11:53;;;;;;;0.30;0.30;;;;;;;13.81;65.52;99726.34;5062279;28;20040;-69
2022/09/21 07:14:22;;;;;;;0.30;0.30;;;;;;;13.88;65.10;99732.31;5044316;28;20580;-70
2022/09/21 07:16:49;;;;;;;0.30;0.30;;;;;;;13.97;64.77;99723.38;5046650;28;20045;-69
2022/09/21 07:19:15;;;;;;;0.40;0.40;;;;;;;14.06;64.71;99723.53;5047991;28;20522;-69
2022/09/21 07:21:41;;;;;;;0.75;0.43;;;;;;;14.18;64.09;99723.84;5020854;28;20140;-69
2022/09/21 07:24:08;;;;;;;0.30;0.30;;;;;;;14.48;63.40;99721.69;5063338;28;20565;-69
2022/09/21 07:26:36;;;;;;;0.40;0.40;;;;;;;14.68;62.79;99723.25;5058218;28;20432;-70
2022/09/21 07:29:02;;;;;;;0.30;0.30;;;;;;;14.76;62.47;99723.72;5043098;28;20049;-72
2022/09/21 07:31:28;;;;;;;0.35;0.35;;;;;;;14.84;62.59;99722.97;5039257;28;20116;-71
2022/09/21 07:33:58;;;;;;;0.30;0.30;;;;;;;14.92;61.87;99716.78;5031643;28;20294;-73
2022/09/21 07:36:24;;;;;;;0.30;0.30;;;;;;;15.00;61.71;99716.03;5034525;28;20049;-70
2022/09/21 07:38:50;;;;;;;0.40;0.40;;;;;;;14.95;61.15;99716.16;5053967;28;20048;-72
2022/09/21 07:41:16;;;;;;;0.40;0.40;;;;;;;14.85;61.80;99717.19;5025441;28;20509;-73
2022/09/21 07:43:42;;;;;;;0.30;0.30;;;;;;;15.00;61.16;99713.28;5016160;28;20056;-72
2022/09/21 07:46:10;;;;;;;0.30;0.30;;;;;;;15.01;61.01;99717.69;5035437;28;20119;-72
2022/09/21 07:48:36;;;;;;;;;;;;;;;15.06;61.22;99718.69;5024784;28;20088;-73
2022/09/21 07:51:06;;;;;;;0.30;0.30;;;;;;;15.03;60.85;99722.88;5026553;28;19925;-72
2022/09/21 07:53:33;;;;;;;0.30;0.30;;;;;;;14.78;61.63;99722.25;5023466;28;20057;-72
2022/09/21 07:56:02;;;;;;;0.40;0.40;;;;;;;14.57;62.19;99719.06;5033371;28;20531;-73
2022/09/21 08:01:13;;;;;;;1.35;0.50;;;;;;;14.42;62.70;99725.66;5050880;28;20149;-69
2022/09/21 08:03:39;;;;;;;0.30;0.30;;;;;;;14.43;62.60;99724.53;5021372;28;20045;-70
2022/09/21 08:06:08;;;;;;;0.40;0.30;;;;;;;14.43;62.41;99719.84;5022606;28;20042;-70
2022/09/21 08:08:34;;;;;;;0.45;0.45;;;;;;;14.35;62.88;99717.81;5025899;28;20046;-69
2022/09/21 08:11:02;;;;;;;0.30;0.30;;;;;;;14.31;62.24;99717.59;5008819;28;20034;-70
2022/09/21 08:13:30;;;;;;;0.30;0.30;;;;;;;14.18;62.57;99713.69;5045731;28;20492;-70
2022/09/21 08:15:57;;;;;;;0.25;0.25;;;;;;;14.09;62.91;99709.97;5050154;28;20048;-70
2022/09/21 08:18:23;;;;;;;0.30;0.30;;;;;;;13.96;62.92;99716.25;5061892;28;20500;-70
2022/09/21 08:20:53;;;;;;;0.30;0.30;;;;;;;14.00;63.20;99722.78;5064061;28;20330;-70
2022/09/21 08:23:20;;;;;;;0.30;0.30;;;;;;;14.08;63.01;99719.34;5066240;28;20152;-68
2022/09/21 08:25:47;;;;;;;;;;;;;;;14.17;62.70;99720.31;5064548;28;20068;-70
2022/09/21 08:28:13;;;;;;;0.30;0.30;;;;;;;14.35;62.07;99719.72;5058063;28;20019;-71
2022/09/21 08:30:40;;;;;;;0.30;0.30;;;;;;;14.66;61.44;99720.00;5053549;28;20158;-72
2022/09/21 08:33:07;;;;;;;0.30;0.30;;;;;;;15.02;60.48;99721.25;5047605;28;20041;-73
2022/09/21 08:35:33;;;;;;;0.30;0.30;;;;;;;15.40;59.69;99722.94;5043501;28;20103;-70
2022/09/21 08:37:59;;;;;;;0.43;0.40;;;;;;;15.58;58.84;99715.63;5060661;28;20098;-72
2022/09/21 08:40:27;;;;;;;0.40;0.40;;;;;;;15.61;58.49;99706.78;5056774;28;20050;-72
2022/09/21 08:43:01;;;;;;;0.30;0.30;;;;;;;15.48;58.51;99702.91;5056487;28;20076;-69
2022/09/21 08:45:33;;;;;;;0.30;0.30;;;;;;;15.21;59.46;99699.09;5053640;28;20098;-70
2022/09/21 08:48:05;;;;;;;0.30;0.30;;;;;;;15.06;60.29;99694.75;5048573;28;20063;-72
2022/09/21 08:50:36;;;;;;;0.38;0.38;;;;;;;15.01;60.23;99692.91;5056631;28;20110;-71
2022/09/21 08:53:06;;;;;;;0.40;0.40;;;;;;;15.25;59.74;99694.63;5019935;28;20274;-72
2022/09/21 08:55:34;;;;;;;0.40;0.40;;;;;;;15.82;58.26;99695.25;5037820;28;20051;-73
2022/09/21 08:58:00;;;;;;;;;;;;;;;16.33;57.22;99689.59;5031797;28;20041;-72
2022/09/21 09:00:28;;;;;;;0.40;0.40;;;;;;;16.91;55.10;99676.69;5044825;28;20361;-72
2022/09/21 09:03:16;;;;;;;1.25;0.60;;;;;;;18.27;51.93;99685.22;5044923;28;20049;-70
2022/09/21 09:05:51;;;;;;;0.40;0.40;;;;;;;19.16;49.32;99667.09;5001357;28;20045;-72
2022/09/21 09:08:38;;;;;;;0.38;0.38;;;;;;;18.98;48.80;99683.81;5040071;28;20546;-73
2022/09/21 09:11:10;;;;;;;;;;;;;;;18.47;50.41;99682.88;5046997;28;20129;-70
2022/09/21 09:13:56;;;;;;;0.40;0.40;;;;;;;18.02;51.28;99681.34;5053109;28;20315;-70
2022/09/21 09:16:35;;;;;;;0.30;0.30;;;;;;;17.69;51.86;99674.38;5047845;28;20492;-70
2022/09/21 09:19:19;;;;;;;0.30;0.30;;;;;;;17.33;52.56;99665.28;5046325;28;20041;-69
2022/09/21 09:21:45;;;;;;;0.30;0.30;;;;;;;17.09;53.44;99665.72;5043907;28;20083;-70
2022/09/21 09:24:17;;;;;;;0.40;0.40;;;;;;;17.18;53.13;99666.56;5027291;28;20118;-70
2022/09/21 09:26:49;;;;;;;0.50;0.47;;;;;;;17.38;52.23;99667.88;5046472;28;20292;-70
2022/09/21 09:29:21;;;;;;;0.35;0.35;;;;;;;17.37;51.53;99674.53;5047341;28;20053;-70
2022/09/21 09:31:49;;;;;;;0.30;0.30;;;;;;;17.18;51.76;99665.75;5049566;28;20045;-70
2022/09/21 09:34:23;;;;;;;0.60;0.40;;;;;;;17.08;51.94;99662.16;5044313;28;20524;-71
2022/09/21 09:36:56;;;;;;;0.60;0.40;;;;;;;17.38;51.35;99664.28;5050697;28;20052;-70
2022/09/21 09:39:23;;;;;;;0.40;0.40;;;;;;;17.78;50.36;99669.66;5045159;28;20044;-70
2022/09/21 09:42:23;;;;;;;0.50;0.50;;;;;;;18.14;49.22;99673.22;5043242;28;20206;-70
2022/09/21 09:45:14;;;;;;;0.80;0.80;;;;;;;19.28;47.52;99658.03;5037727;28;20073;-68
2022/09/21 09:47:52;;;;;;;0.80;0.80;;;;;;;19.80;46.08;99658.75;5049948;28;20079;-69
2022/09/21 09:50:28;;;;;;;0.47;0.45;;;;;;;20.39;44.71;99663.25;5019141;28;20451;-69
2022/09/21 09:53:03;;;;;;;0.50;0.50;;;;;;;20.10;44.61;99664.19;5039252;28;20394;-73
2022/09/21 09:55:36;;;;;;;0.70;0.70;;;;;;;20.37;44.46;99657.22;5045927;28;20163;-72
2022/09/21 09:58:11;;;;;;;0.50;0.50;;;;;;;21.02;42.36;99643.81;5030227;28;20143;-72
2022/09/21 10:00:38;;;;;;;0.70;0.70;;;;;;;20.59;43.08;99657.09;5048229;28;20155;-71
2022/09/21 10:03:16;;;;;;;0.40;0.40;;;;;;;20.48;43.38;99663.13;5049612;28;20536;-71
2022/09/21 10:05:41;;;;;;;;;;;;;;;20.29;43.45;99665.63;5048029;28;20049;-71
2022/09/21 10:08:27;;;;;;;0.50;0.50;;;;;;;19.41;44.48;99667.22;5046239;28;20346;-71
2022/09/21 10:10:54;;;;;;;0.30;0.30;;;;;;;18.90;44.98;99654.19;5024386;28;20045;-73
2022/09/21 10:13:25;;;;;;;0.30;0.30;;;;;;;18.40;45.96;99664.00;5046721;28;20048;-73
2022/09/21 10:15:56;;;;;;;0.30;0.30;;;;;;;17.96;47.26;99664.94;5050780;28;20053;-73
2022/09/21 10:18:25;;;;;;;0.40;0.40;;;;;;;17.74;47.76;99659.56;5052997;28;20106;-71
2022/09/21 10:20:57;;;;;;;0.30;0.30;;;;;;;17.76;48.06;99662.81;5048464;28;20052;-72
2022/09/21 10:23:24;;;;;;;0.30;0.30;;;;;;;17.57;48.66;99656.50;5029307;28;20508;-73
2022/09/21 10:25:57;;;;;;;0.40;0.40;;;;;;;17.55;48.67;99655.19;5048440;28;20048;-73
2022/09/21 10:28:26;;;;;;;0.40;0.40;;;;;;;17.64;48.69;99649.66;5028398;28;20057;-73
2022/09/21 10:31:08;;;;;;;0.30;0.30;;;;;;;17.67;48.97;99649.00;5039128;28;20041;-73
2022/09/21 10:33:46;;;;;;;0.32;0.32;;;;;;;17.58;48.96;99657.31;5041799;28;20045;-72
2022/09/21 10:36:26;;;;;;;0.40;0.40;;;;;;;17.41;49.34;99647.88;5047188;28;20048;-72
2022/09/21 10:38:52;;;;;;;0.30;0.30;;;;;;;16.99;50.30;99644.75;5048592;28;20053;-72
2022/09/21 10:41:18;;;;;;;0.30;0.30;;;;;;;16.63;51.17;99645.75;5046231;28;20053;-72
2022/09/21 10:43:49;;;;;;;0.30;0.30;;;;;;;16.28;51.97;99641.72;5044482;28;20045;-70
2022/09/21 10:46:33;;;;;;;0.30;0.30;;;;;;;15.99;52.71;99644.97;5033072;28;20130;-73
2022/09/21 10:49:02;;;;;;;0.30;0.30;;;;;;;15.92;53.07;99637.16;5044122;28;20125;-69
2022/09/21 10:51:32;;;;;;;0.32;0.30;;;;;;;15.94;52.91;99643.16;5045489;28;20040;-70
2022/09/21 10:54:00;;;;;;;0.30;0.30;;;;;;;15.87;53.19;99642.75;5028709;28;20051;-70
2022/09/21 10:56:26;;;;;;;0.30;0.30;;;;;;;15.79;53.39;99658.09;5046709;28;20059;-70
2022/09/21 10:59:21;;;;;;;0.25;0.25;;;;;;;15.81;53.37;99650.34;5049390;28;20113;-73
2022/09/21 11:01:50;;;;;;;0.30;0.30;;;;;;;15.79;53.78;99649.84;5040696;28;20056;-70
2022/09/21 11:04:23;;;;;;;0.30;0.30;;;;;;;15.85;53.87;99647.75;5046781;28;20069;-70
2022/09/21 11:06:54;;;;;;;0.20;0.20;;;;;;;15.87;54.09;99646.34;5045815;28;20056;-72
2022/09/21 11:09:28;;;;;;;0.30;0.30;;;;;;;15.77;54.31;99643.03;5044508;28;20152;-71
2022/09/21 11:12:02;;;;;;;0.30;0.30;;;;;;;15.64;54.88;99644.69;5043307;28;20135;-72
2022/09/21 11:14:44;;;;;;;0.20;0.20;;;;;;;15.55;54.96;99644.63;5041719;28;20147;-73
2022/09/21 11:17:17;;;;;;;0.30;0.30;;;;;;;15.53;55.36;99647.72;5045071;28;20052;-71
2022/09/21 11:19:48;;;;;;;0.30;0.30;;;;;;;15.51;55.70;99636.16;5049216;28;20321;-71
2022/09/21 11:22:26;;;;;;;0.30;0.30;;;;;;;15.43;55.76;99639.69;5049986;28;20177;-69
2022/09/21 11:25:02;;;;;;;0.30;0.30;;;;;;;15.34;55.87;99636.84;5046714;28;20076;-70
2022/09/21 11:27:35;;;;;;;0.30;0.30;;;;;;;15.21;56.57;99644.00;5052882;28;20356;-69
2022/09/21 11:30:08;;;;;;;0.35;0.30;;;;;;;15.17;56.85;99637.50;5049963;28;20516;-70
2022/09/21 11:33:03;;;;;;;0.20;0.20;;;;;;;15.18;56.41;99639.13;5040923;28;20256;-70
2022/09/21 11:35:51;;;;;;;0.30;0.30;;;;;;;15.19;56.51;99640.75;5043897;28;20040;-69
2022/09/21 11:38:35;;;;;;;0.30;0.30;;;;;;;15.18;56.72;99641.88;5007390;28;20429;-70
2022/09/21 11:41:24;;;;;;;0.20;0.20;;;;;;;15.22;56.36;99633.81;5046294;28;20695;-69
2022/09/21 11:44:08;;;;;;;0.45;0.40;;;;;;;15.19;56.48;99631.69;5042378;28;20045;-70
2022/09/21 11:46:45;;;;;;;0.30;0.30;;;;;;;15.20;56.51;99623.09;5040842;28;20122;-70
2022/09/21 11:49:32;;;;;;;0.30;0.30;;;;;;;15.21;55.95;99638.50;5050517;28;20047;-69
2022/09/21 11:52:14;;;;;;;0.30;0.30;;;;;;;15.23;56.13;99627.19;5047125;28;20423;-69
2022/09/21 11:54:59;;;;;;;0.20;0.20;;;;;;;15.19;56.40;99617.94;5040261;28;20053;-69
2022/09/21 11:57:28;;;;;;;0.22;0.22;;;;;;;15.08;56.29;99620.09;5046081;28;20045;-70